sensor_id;sensor_type;location;lat;lon;timestamp;pressure;altitude;pressure_sealevel;temperature;humidity
60433;BME280;46286;48.098;11.590;2022-09-09T00:03:48;95302.66;;;13.37;100.00
60433;BME280;46286;48.098;11.590;2022-09-09T00:06:26;95304.25;;;13.38;100.00
60433;BME280;46286;48.098;11.590;2022-09-09T00:09:13;95308.94;;;13.41;100.00
60433;BME280;46286;48.098;11.590;2022-09-09T00:12:17;95303.66;;;13.41;100.00
60433;BME280;46286;48.098;11.590;2022-09-09T00:14:48;95309.53;;;13.38;100.00
60433;BME280;46286;48.098;11.590;2022-09-09T00:17:35;95308.94;;;13.41;100.00
60433;BME280;46286;48.098;11.590;2022-09-09T00:20:14;95305.78;;;13.39;100.00
60433;BME280;46286;48.098;11.590;2022-09-09T00:22:59;95305.63;;;13.49;100.00
60433;BME280;46286;48.098;11.590;2022-09-09T00:31:33;95294.22;;;13.34;100.00
60433;BME280;46286;48.098;11.590;2022-09-09T00:34:05;95304.44;;;13.41;100.00
60433;BME280;46286;48.098;11.590;2022-09-09T00:36:35;95299.44;;;13.40;100.00
60433;BME280;46286;48.098;11.590;2022-09-09T00:39:03;95309.09;;;13.30;100.00
60433;BME280;46286;48.098;11.590;2022-09-09T00:44:11;95317.50;;;13.32;100.00
60433;BME280;46286;48.098;11.590;2022-09-09T00:46:54;95315.31;;;13.40;100.00
60433;BME280;46286;48.098;11.590;2022-09-09T00:55:05;95304.66;;;13.45;100.00
60433;BME280;46286;48.098;11.590;2022-09-09T00:57:35;95314.81;;;13.51;100.00
60433;BME280;46286;48.098;11.590;2022-09-09T01:00:21;95323.34;;;13.48;100.00
60433;BME280;46286;48.098;11.590;2022-09-09T01:08:11;95316.03;;;13.59;100.00
60433;BME280;46286;48.098;11.590;2022-09-09T01:10:51;95317.16;;;13.53;100.00
60433;BME280;46286;48.098;11.590;2022-09-09T01:13:27;95321.31;;;13.59;100.00
60433;BME280;46286;48.098;11.590;2022-09-09T01:15:58;95318.75;;;13.54;100.00
60433;BME280;46286;48.098;11.590;2022-09-09T01:18:52;95310.63;;;13.50;100.00
60433;BME280;46286;48.098;11.590;2022-09-09T01:26:26;95314.44;;;13.58;100.00
60433;BME280;46286;48.098;11.590;2022-09-09T01:28:53;95315.50;;;13.57;100.00
60433;BME280;46286;48.098;11.590;2022-09-09T01:31:38;95314.84;;;13.65;100.00
60433;BME280;46286;48.098;11.590;2022-09-09T01:34:14;95320.53;;;13.73;100.00
60433;BME280;46286;48.098;11.590;2022-09-09T01:36:57;95311.13;;;13.66;100.00
60433;BME280;46286;48.098;11.590;2022-09-09T01:39:25;95316.41;;;13.66;100.00
60433;BME280;46286;48.098;11.590;2022-09-09T01:41:52;95311.78;;;13.58;100.00
60433;BME280;46286;48.098;11.590;2022-09-09T01:44:18;95304.66;;;13.45;100.00
60433;BME280;46286;48.098;11.590;2022-09-09T01:46:44;95307.38;;;13.40;100.00
60433;BME280;46286;48.098;11.590;2022-09-09T01:49:10;95310.91;;;13.49;100.00
60433;BME280;46286;48.098;11.590;2022-09-09T01:51:37;95312.06;;;13.43;100.00
60433;BME280;46286;48.098;11.590;2022-09-09T01:54:04;95313.25;;;13.37;100.00
60433;BME280;46286;48.098;11.590;2022-09-09T02:00:10;95305.78;;;13.39;100.00
60433;BME280;46286;48.098;11.590;2022-09-09T02:02:55;95314.22;;;13.41;100.00
60433;BME280;46286;48.098;11.590;2022-09-09T02:05:39;95311.66;;;13.36;100.00
60433;BME280;46286;48.098;11.590;2022-09-09T02:08:11;95314.94;;;13.27;100.00
60433;BME280;46286;48.098;11.590;2022-09-09T02:13:24;95301.44;;;13.15;100.00
60433;BME280;46286;48.098;11.590;2022-09-09T02:18:49;95291.66;;;13.29;100.00
60433;BME280;46286;48.098;11.590;2022-09-09T02:21:17;95293.91;;;13.22;100.00
60433;BME280;46286;48.098;11.590;2022-09-09T02:23:44;95294.78;;;13.31;100.00
60433;BME280;46286;48.098;11.590;2022-09-09T02:26:12;95289.63;;;13.26;100.00
60433;BME280;46286;48.098;11.590;2022-09-09T02:28:45;95304.25;;;13.18;100.00
60433;BME280;46286;48.098;11.590;2022-09-09T02:31:13;95304.97;;;13.24;100.00
60433;BME280;46286;48.098;11.590;2022-09-09T02:33:45;95311.81;;;13.25;100.00
60433;BME280;46286;48.098;11.590;2022-09-09T02:36:14;95313.47;;;13.21;100.00
60433;BME280;46286;48.098;11.590;2022-09-09T02:38:51;95294.97;;;13.21;100.00
60433;BME280;46286;48.098;11.590;2022-09-09T02:41:37;95292.25;;;13.26;100.00
60433;BME280;46286;48.098;11.590;2022-09-09T02:44:21;95290.09;;;13.28;100.00
60433;BME280;46286;48.098;11.590;2022-09-09T02:52:08;95289.09;;;13.24;100.00
60433;BME280;46286;48.098;11.590;2022-09-09T02:54:40;95288.13;;;13.20;100.00
60433;BME280;46286;48.098;11.590;2022-09-09T02:57:16;95290.69;;;13.25;100.00
60433;BME280;46286;48.098;11.590;2022-09-09T02:59:44;95291.25;;;13.22;100.00
60433;BME280;46286;48.098;11.590;2022-09-09T03:02:10;95293.91;;;13.22;100.00
60433;BME280;46286;48.098;11.590;2022-09-09T03:04:37;95284.81;;;13.28;100.00
60433;BME280;46286;48.098;11.590;2022-09-09T03:07:03;95285.97;;;13.22;100.00
60433;BME280;46286;48.098;11.590;2022-09-09T03:09:29;95282.75;;;13.25;100.00
60433;BME280;46286;48.098;11.590;2022-09-09T03:11:55;95291.66;;;13.29;100.00
60433;BME280;46286;48.098;11.590;2022-09-09T03:14:21;95289.09;;;13.24;100.00
60433;BME280;46286;48.098;11.590;2022-09-09T03:16:50;95282.34;;;13.18;100.00
60433;BME280;46286;48.098;11.590;2022-09-09T03:19:16;95275.41;;;13.22;100.00
60433;BME280;46286;48.098;11.590;2022-09-09T03:21:42;95279.53;;;13.28;100.00
60433;BME280;46286;48.098;11.590;2022-09-09T03:24:07;95282.69;;;13.30;100.00
60433;BME280;46286;48.098;11.590;2022-09-09T03:26:33;95277.66;;;13.15;100.00
60433;BME280;46286;48.098;11.590;2022-09-09T03:28:58;95274.03;;;13.11;100.00
60433;BME280;46286;48.098;11.590;2022-09-09T03:31:26;95280.88;;;13.12;100.00
60433;BME280;46286;48.098;11.590;2022-09-09T03:33:56;95279.88;;;13.08;100.00
60433;BME280;46286;48.098;11.590;2022-09-09T03:36:24;95277.31;;;13.03;100.00
60433;BME280;46286;48.098;11.590;2022-09-09T03:38:49;95276.13;;;12.95;100.00
60433;BME280;46286;48.098;11.590;2022-09-09T03:41:15;95276.50;;;12.88;100.00
60433;BME280;46286;48.098;11.590;2022-09-09T03:43:41;95279.25;;;12.83;100.00
60433;BME280;46286;48.098;11.590;2022-09-09T03:46:07;95277.44;;;12.78;100.00
60433;BME280;46286;48.098;11.590;2022-09-09T03:48:32;95282.72;;;12.78;100.00
60433;BME280;46286;48.098;11.590;2022-09-09T03:50:58;95276.25;;;12.71;100.00
60433;BME280;46286;48.098;11.590;2022-09-09T03:53:26;95275.25;;;12.67;100.00
60433;BME280;46286;48.098;11.590;2022-09-09T03:55:53;95286.25;;;12.74;100.00
60433;BME280;46286;48.098;11.590;2022-09-09T03:58:25;95285.66;;;12.77;100.00
60433;BME280;46286;48.098;11.590;2022-09-09T04:01:00;95276.59;;;12.83;100.00
60433;BME280;46286;48.098;11.590;2022-09-09T04:03:26;95278.81;;;12.76;100.00
60433;BME280;46286;48.098;11.590;2022-09-09T04:05:53;95277.84;;;12.86;100.00
60433;BME280;46286;48.098;11.590;2022-09-09T04:08:19;95275.50;;;12.84;100.00
60433;BME280;46286;48.098;11.590;2022-09-09T04:10:47;95276.09;;;12.81;100.00
60433;BME280;46286;48.098;11.590;2022-09-09T04:13:14;95280.78;;;12.84;100.00
60433;BME280;46286;48.098;11.590;2022-09-09T04:15:42;95271.81;;;12.85;100.00
60433;BME280;46286;48.098;11.590;2022-09-09T04:18:08;95263.47;;;12.78;100.00
60433;BME280;46286;48.098;11.590;2022-09-09T04:20:34;95268.09;;;12.86;100.00
60433;BME280;46286;48.098;11.590;2022-09-09T04:23:01;95267.28;;;12.86;100.00
60433;BME280;46286;48.098;11.590;2022-09-09T04:25:26;95265.53;;;12.81;100.00
60433;BME280;46286;48.098;11.590;2022-09-09T04:27:56;95249.09;;;12.84;100.00
60433;BME280;46286;48.098;11.590;2022-09-09T04:30:22;95241.28;;;12.79;100.00
60433;BME280;46286;48.098;11.590;2022-09-09T04:32:47;95241.44;;;12.69;100.00
60433;BME280;46286;48.098;11.590;2022-09-09T04:35:13;95249.25;;;12.60;100.00
60433;BME280;46286;48.098;11.590;2022-09-09T04:37:38;95253.16;;;12.62;100.00
60433;BME280;46286;48.098;11.590;2022-09-09T04:40:04;95246.81;;;12.63;100.00
60433;BME280;46286;48.098;11.590;2022-09-09T04:42:35;95247.44;;;12.55;100.00
60433;BME280;46286;48.098;11.590;2022-09-09T04:45:00;95249.75;;;12.43;100.00
60433;BME280;46286;48.098;11.590;2022-09-09T04:47:26;95246.44;;;12.51;100.00
60433;BME280;46286;48.098;11.590;2022-09-09T04:49:52;95254.47;;;12.46;100.00
60433;BME280;46286;48.098;11.590;2022-09-09T04:52:20;95248.59;;;12.49;100.00
60433;BME280;46286;48.098;11.590;2022-09-09T04:54:45;95252.53;;;12.52;100.00
60433;BME280;46286;48.098;11.590;2022-09-09T04:57:11;95246.84;;;12.44;100.00
60433;BME280;46286;48.098;11.590;2022-09-09T04:59:37;95236.06;;;12.41;100.00
60433;BME280;46286;48.098;11.590;2022-09-09T05:02:04;95232.34;;;12.42;100.00
60433;BME280;46286;48.098;11.590;2022-09-09T05:04:31;95246.69;;;12.55;100.00
60433;BME280;46286;48.098;11.590;2022-09-09T05:06:56;95246.38;;;12.56;100.00
60433;BME280;46286;48.098;11.590;2022-09-09T05:09:22;95269.38;;;12.56;100.00
60433;BME280;46286;48.098;11.590;2022-09-09T05:11:47;95260.00;;;12.63;100.00
60433;BME280;46286;48.098;11.590;2022-09-09T05:14:14;95261.00;;;12.68;100.00
60433;BME280;46286;48.098;11.590;2022-09-09T05:16:40;95259.41;;;12.67;100.00
60433;BME280;46286;48.098;11.590;2022-09-09T05:19:06;95259.53;;;12.61;100.00
60433;BME280;46286;48.098;11.590;2022-09-09T05:21:33;95265.13;;;12.74;100.00
60433;BME280;46286;48.098;11.590;2022-09-09T05:23:59;95273.38;;;12.86;100.00
60433;BME280;46286;48.098;11.590;2022-09-09T05:26:25;95269.66;;;12.87;100.00
60433;BME280;46286;48.098;11.590;2022-09-09T05:28:51;95268.09;;;12.86;100.00
60433;BME280;46286;48.098;11.590;2022-09-09T05:31:17;95265.94;;;12.88;100.00
60433;BME280;46286;48.098;11.590;2022-09-09T05:33:44;95269.16;;;12.85;100.00
60433;BME280;46286;48.098;11.590;2022-09-09T05:36:15;95261.16;;;12.90;100.00
60433;BME280;46286;48.098;11.590;2022-09-09T05:38:42;95263.22;;;12.93;100.00
60433;BME280;46286;48.098;11.590;2022-09-09T05:41:10;95269.66;;;12.87;100.00
60433;BME280;46286;48.098;11.590;2022-09-09T05:43:37;95267.44;;;12.94;100.00
60433;BME280;46286;48.098;11.590;2022-09-09T05:46:04;95279.97;;;13.03;100.00
60433;BME280;46286;48.098;11.590;2022-09-09T05:48:31;95272.63;;;12.99;100.00
60433;BME280;46286;48.098;11.590;2022-09-09T05:50:58;95265.88;;;13.07;100.00
60433;BME280;46286;48.098;11.590;2022-09-09T05:53:25;95270.31;;;13.12;100.00
60433;BME280;46286;48.098;11.590;2022-09-09T05:58:26;95269.72;;;13.15;100.00
60433;BME280;46286;48.098;11.590;2022-09-09T06:00:52;95272.97;;;13.26;100.00
60433;BME280;46286;48.098;11.590;2022-09-09T06:03:19;95283.66;;;13.34;100.00
60433;BME280;46286;48.098;11.590;2022-09-09T06:05:57;95284.06;;;13.42;100.00
60433;BME280;46286;48.098;11.590;2022-09-09T06:08:22;95286.69;;;13.42;100.00
60433;BME280;46286;48.098;11.590;2022-09-09T06:10:48;95282.91;;;13.48;100.00
60433;BME280;46286;48.098;11.590;2022-09-09T06:13:13;95278.03;;;13.55;100.00
60433;BME280;46286;48.098;11.590;2022-09-09T06:15:39;95280.00;;;13.63;100.00
60433;BME280;46286;48.098;11.590;2022-09-09T06:18:05;95284.09;;;13.69;100.00
60433;BME280;46286;48.098;11.590;2022-09-09T06:20:30;95283.69;;;13.76;100.00
60433;BME280;46286;48.098;11.590;2022-09-09T06:22:57;95283.78;;;13.85;100.00
60433;BME280;46286;48.098;11.590;2022-09-09T06:25:22;95277.41;;;13.86;100.00
60433;BME280;46286;48.098;11.590;2022-09-09T06:27:49;95278.38;;;13.90;100.00
60433;BME280;46286;48.098;11.590;2022-09-09T06:30:15;95277.03;;;13.93;100.00
60433;BME280;46286;48.098;11.590;2022-09-09T06:32:42;95279.38;;;13.94;100.00
60433;BME280;46286;48.098;11.590;2022-09-09T06:35:08;95273.47;;;13.97;100.00
60433;BME280;46286;48.098;11.590;2022-09-09T06:37:33;95272.88;;;14.00;100.00
60433;BME280;46286;48.098;11.590;2022-09-09T06:39:59;95280.13;;;14.09;100.00
60433;BME280;46286;48.098;11.590;2022-09-09T06:42:24;95283.28;;;14.11;100.00
60433;BME280;46286;48.098;11.590;2022-09-09T06:44:50;95280.59;;;14.25;100.00
60433;BME280;46286;48.098;11.590;2022-09-09T06:47:15;95276.56;;;14.27;100.00
60433;BME280;46286;48.098;11.590;2022-09-09T06:49:40;95291.44;;;14.37;100.00
60433;BME280;46286;48.098;11.590;2022-09-09T06:52:06;95280.66;;;14.33;100.00
60433;BME280;46286;48.098;11.590;2022-09-09T06:54:33;95286.31;;;14.41;100.00
60433;BME280;46286;48.098;11.590;2022-09-09T06:57:02;95289.22;;;14.53;100.00
60433;BME280;46286;48.098;11.590;2022-09-09T06:59:28;95290.81;;;14.54;100.00
60433;BME280;46286;48.098;11.590;2022-09-09T07:01:55;95290.22;;;14.57;100.00
60433;BME280;46286;48.098;11.590;2022-09-09T07:04:21;95286.44;;;14.58;100.00
60433;BME280;46286;48.098;11.590;2022-09-09T07:06:47;95296.28;;;14.58;100.00
60433;BME280;46286;48.098;11.590;2022-09-09T07:09:15;95293.72;;;14.66;100.00
60433;BME280;46286;48.098;11.590;2022-09-09T07:11:43;95289.41;;;14.70;100.00
60433;BME280;46286;48.098;11.590;2022-09-09T07:14:10;95295.75;;;14.69;100.00
60433;BME280;46286;48.098;11.590;2022-09-09T07:16:42;95293.72;;;14.66;100.00
60433;BME280;46286;48.098;11.590;2022-09-09T07:19:08;95293.13;;;14.69;100.00
60433;BME280;46286;48.098;11.590;2022-09-09T07:21:34;95298.41;;;14.69;100.00
60433;BME280;46286;48.098;11.590;2022-09-09T07:24:00;95308.59;;;14.76;100.00
60433;BME280;46286;48.098;11.590;2022-09-09T07:26:28;95313.72;;;14.72;100.00
60433;BME280;46286;48.098;11.590;2022-09-09T07:28:55;95326.97;;;14.72;100.00
60433;BME280;46286;48.098;11.590;2022-09-09T07:33:49;95339.25;;;14.91;100.00
60433;BME280;46286;48.098;11.590;2022-09-09T07:36:17;95333.84;;;14.96;100.00
60433;BME280;46286;48.098;11.590;2022-09-09T07:38:48;95336.38;;;15.01;100.00
60433;BME280;46286;48.098;11.590;2022-09-09T07:43:46;95348.47;;;15.16;100.00
60433;BME280;46286;48.098;11.590;2022-09-09T07:46:14;95345.19;;;15.19;100.00
60433;BME280;46286;48.098;11.590;2022-09-09T07:48:45;95352.13;;;15.29;100.00
60433;BME280;46286;48.098;11.590;2022-09-09T07:51:14;95351.88;;;15.39;100.00
60433;BME280;46286;48.098;11.590;2022-09-09T07:53:43;95357.53;;;15.47;100.00
60433;BME280;46286;48.098;11.590;2022-09-09T07:56:11;95357.38;;;15.43;100.00
60433;BME280;46286;48.098;11.590;2022-09-09T07:58:38;95364.41;;;15.48;100.00
60433;BME280;46286;48.098;11.590;2022-09-09T08:01:09;95355.19;;;15.45;100.00
60433;BME280;46286;48.098;11.590;2022-09-09T08:03:35;95358.50;;;15.51;100.00
60433;BME280;46286;48.098;11.590;2022-09-09T08:06:03;95353.88;;;15.65;100.00
60433;BME280;46286;48.098;11.590;2022-09-09T08:08:29;95356.75;;;15.77;100.00
60433;BME280;46286;48.098;11.590;2022-09-09T08:11:08;95362.25;;;15.81;100.00
60433;BME280;46286;48.098;11.590;2022-09-09T08:13:35;95365.53;;;15.87;100.00
60433;BME280;46286;48.098;11.590;2022-09-09T08:16:12;95366.06;;;15.98;100.00
60433;BME280;46286;48.098;11.590;2022-09-09T08:18:38;95367.00;;;16.02;100.00
60433;BME280;46286;48.098;11.590;2022-09-09T08:21:14;95384.38;;;16.17;100.00
60433;BME280;46286;48.098;11.590;2022-09-09T08:23:41;95385.34;;;16.21;100.00
60433;BME280;46286;48.098;11.590;2022-09-09T08:26:15;95389.09;;;16.20;100.00
60433;BME280;46286;48.098;11.590;2022-09-09T08:28:42;95381.00;;;16.25;100.00
60433;BME280;46286;48.098;11.590;2022-09-09T08:31:13;95380.41;;;16.45;100.00
60433;BME280;46286;48.098;11.590;2022-09-09T08:33:39;95386.50;;;16.55;100.00
60433;BME280;46286;48.098;11.590;2022-09-09T08:36:05;95391.22;;;16.58;100.00
60433;BME280;46286;48.098;11.590;2022-09-09T08:38:32;95383.38;;;16.61;100.00
60433;BME280;46286;48.098;11.590;2022-09-09T08:41:07;95391.03;;;16.45;100.00
60433;BME280;46286;48.098;11.590;2022-09-09T08:43:36;95397.72;;;16.43;100.00
60433;BME280;46286;48.098;11.590;2022-09-09T08:46:27;95393.03;;;16.40;100.00
60433;BME280;46286;48.098;11.590;2022-09-09T08:48:58;95398.16;;;16.36;100.00
60433;BME280;46286;48.098;11.590;2022-09-09T08:51:29;95392.53;;;16.29;100.00
60433;BME280;46286;48.098;11.590;2022-09-09T08:53:57;95391.00;;;16.28;100.00
60433;BME280;46286;48.098;11.590;2022-09-09T08:56:25;95395.69;;;16.31;100.00
60433;BME280;46286;48.098;11.590;2022-09-09T08:58:53;95387.84;;;16.26;100.00
60433;BME280;46286;48.098;11.590;2022-09-09T09:06:59;95397.19;;;16.15;100.00
60433;BME280;46286;48.098;11.590;2022-09-09T09:12:15;95392.47;;;16.11;100.00
60433;BME280;46286;48.098;11.590;2022-09-09T09:14:42;95386.28;;;16.25;100.00
60433;BME280;46286;48.098;11.590;2022-09-09T09:19:40;95393.34;;;16.30;100.00
60433;BME280;46286;48.098;11.590;2022-09-09T09:24:56;95395.06;;;16.34;100.00
60433;BME280;46286;48.098;11.590;2022-09-09T09:30:10;95392.91;;;16.54;100.00
60433;BME280;46286;48.098;11.590;2022-09-09T09:32:39;95387.63;;;16.71;100.00
60433;BME280;46286;48.098;11.590;2022-09-09T09:35:13;95387.31;;;16.64;100.00
60433;BME280;46286;48.098;11.590;2022-09-09T09:37:40;95397.00;;;16.60;100.00
60433;BME280;46286;48.098;11.590;2022-09-09T09:40:15;95402.59;;;16.50;100.00
60433;BME280;46286;48.098;11.590;2022-09-09T09:42:54;95406.34;;;16.49;100.00
60433;BME280;46286;48.098;11.590;2022-09-09T09:45:45;95400.41;;;16.52;100.00
60433;BME280;46286;48.098;11.590;2022-09-09T09:48:12;95391.34;;;16.44;100.00
60433;BME280;46286;48.098;11.590;2022-09-09T09:50:58;95405.06;;;16.37;100.00
60433;BME280;46286;48.098;11.590;2022-09-09T09:53:29;95404.88;;;16.25;100.00
60433;BME280;46286;48.098;11.590;2022-09-09T09:56:05;95409.41;;;16.33;100.00
60433;BME280;46286;48.098;11.590;2022-09-09T09:58:52;95410.03;;;16.30;100.00
60433;BME280;46286;48.098;11.590;2022-09-09T10:01:27;95410.03;;;16.30;100.00
60433;BME280;46286;48.098;11.590;2022-09-09T10:06:38;95403.16;;;16.29;100.00
60433;BME280;46286;48.098;11.590;2022-09-09T10:09:29;95401.00;;;16.31;100.00
60433;BME280;46286;48.098;11.590;2022-09-09T10:18:23;95402.72;;;16.36;100.00
60433;BME280;46286;48.098;11.590;2022-09-09T10:35:24;95400.59;;;16.06;100.00
60433;BME280;46286;48.098;11.590;2022-09-09T10:38:11;95399.69;;;16.20;100.00
60433;BME280;46286;48.098;11.590;2022-09-09T10:40:46;95403.16;;;16.29;100.00
60433;BME280;46286;48.098;11.590;2022-09-09T10:48:28;95412.22;;;16.28;100.00
60433;BME280;46286;48.098;11.590;2022-09-09T10:51:19;95405.97;;;16.24;100.00
60433;BME280;46286;48.098;11.590;2022-09-09T10:57:24;95401.59;;;16.28;100.00
60433;BME280;46286;48.098;11.590;2022-09-09T10:59:53;95394.09;;;16.30;100.00
60433;BME280;46286;48.098;11.590;2022-09-09T11:02:27;95403.16;;;16.29;100.00
60433;BME280;46286;48.098;11.590;2022-09-09T11:04:59;95400.06;;;16.44;100.00
60433;BME280;46286;48.098;11.590;2022-09-09T11:07:36;95398.88;;;16.51;100.00
60433;BME280;46286;48.098;11.590;2022-09-09T11:10:13;95395.75;;;16.66;100.00
60433;BME280;46286;48.098;11.590;2022-09-09T11:12:44;95398.72;;;16.82;100.00
60433;BME280;46286;48.098;11.590;2022-09-09T11:15:28;95404.69;;;16.96;100.00
60433;BME280;46286;48.098;11.590;2022-09-09T11:17:59;95392.19;;;17.06;100.00
60433;BME280;46286;48.098;11.590;2022-09-09T11:20:26;95403.59;;;17.06;100.00
60433;BME280;46286;48.098;11.590;2022-09-09T11:23:03;95399.69;;;17.04;100.00
60433;BME280;46286;48.098;11.590;2022-09-09T11:25:40;95398.91;;;17.29;100.00
60433;BME280;46286;48.098;11.590;2022-09-09T11:28:29;95399.69;;;17.30;100.00
60433;BME280;46286;48.098;11.590;2022-09-09T11:34:03;95389.22;;;17.25;100.00
60433;BME280;46286;48.098;11.590;2022-09-09T11:37:00;95393.91;;;17.28;100.00
60433;BME280;46286;48.098;11.590;2022-09-09T11:39:43;95396.75;;;17.23;100.00
60433;BME280;46286;48.098;11.590;2022-09-09T11:44:37;95390.31;;;17.33;100.00
60433;BME280;46286;48.098;11.590;2022-09-09T11:47:02;95390.75;;;17.43;100.00
60433;BME280;46286;48.098;11.590;2022-09-09T11:49:39;95386.56;;;17.90;100.00
60433;BME280;46286;48.098;11.590;2022-09-09T11:52:24;95390.28;;;18.06;100.00
60433;BME280;46286;48.098;11.590;2022-09-09T11:54:54;95400.91;;;18.45;100.00
60433;BME280;46286;48.098;11.590;2022-09-09T11:57:35;95392.88;;;18.53;100.00
60433;BME280;46286;48.098;11.590;2022-09-09T12:00:02;95387.06;;;18.30;100.00
60433;BME280;46286;48.098;11.590;2022-09-09T12:02:29;95383.47;;;18.47;100.00
60433;BME280;46286;48.098;11.590;2022-09-09T12:05:02;95388.59;;;18.61;100.00
60433;BME280;46286;48.098;11.590;2022-09-09T12:12:46;95388.47;;;18.58;100.00
60433;BME280;46286;48.098;11.590;2022-09-09T12:17:45;95392.34;;;18.60;100.00
60433;BME280;46286;48.098;11.590;2022-09-09T12:28:19;95382.94;;;18.63;100.00
60433;BME280;46286;48.098;11.590;2022-09-09T12:30:55;95374.94;;;18.63;100.00
60433;BME280;46286;48.098;11.590;2022-09-09T12:33:23;95377.25;;;18.43;100.00
60433;BME280;46286;48.098;11.590;2022-09-09T12:35:59;95381.09;;;18.55;100.00
60433;BME280;46286;48.098;11.590;2022-09-09T12:38:34;95380.22;;;18.42;100.00
60433;BME280;46286;48.098;11.590;2022-09-09T12:40:59;95374.78;;;18.38;100.00
60433;BME280;46286;48.098;11.590;2022-09-09T12:43:26;95371.81;;;18.61;100.00
60433;BME280;46286;48.098;11.590;2022-09-09T12:45:59;95361.28;;;18.85;100.00
60433;BME280;46286;48.098;11.590;2022-09-09T12:48:31;95357.22;;;18.88;100.00
60433;BME280;46286;48.098;11.590;2022-09-09T12:50:58;95362.59;;;18.79;100.00
60433;BME280;46286;48.098;11.590;2022-09-09T12:53:35;95354.34;;;18.72;100.00
60433;BME280;46286;48.098;11.590;2022-09-09T12:56:05;95351.25;;;18.91;100.00
60433;BME280;46286;48.098;11.590;2022-09-09T12:58:32;95355.69;;;18.78;100.00
60433;BME280;46286;48.098;11.590;2022-09-09T13:00:59;95356.09;;;18.68;100.00
60433;BME280;46286;48.098;11.590;2022-09-09T13:03:26;95352.97;;;18.66;100.00
60433;BME280;46286;48.098;11.590;2022-09-09T13:05:53;95355.34;;;18.59;100.00
60433;BME280;46286;48.098;11.590;2022-09-09T13:08:19;95357.50;;;18.44;100.00
60433;BME280;46286;48.098;11.590;2022-09-09T13:11:04;95350.44;;;18.18;100.00
60433;BME280;46286;48.098;11.590;2022-09-09T13:13:37;95353.94;;;18.10;100.00
60433;BME280;46286;48.098;11.590;2022-09-09T13:16:05;95349.59;;;18.27;100.00
60433;BME280;46286;48.098;11.590;2022-09-09T13:18:36;95345.66;;;18.33;100.00
60433;BME280;46286;48.098;11.590;2022-09-09T13:21:03;95338.94;;;18.27;100.00
60433;BME280;46286;48.098;11.590;2022-09-09T13:23:32;95339.22;;;18.34;100.00
60433;BME280;46286;48.098;11.590;2022-09-09T13:26:00;95337.38;;;18.26;100.00
60433;BME280;46286;48.098;11.590;2022-09-09T13:28:28;95336.28;;;18.27;100.00
60433;BME280;46286;48.098;11.590;2022-09-09T13:31:18;95340.63;;;18.10;100.00
60433;BME280;46286;48.098;11.590;2022-09-09T13:33:45;95335.06;;;17.94;100.00
60433;BME280;46286;48.098;11.590;2022-09-09T13:36:11;95335.53;;;17.88;100.00
60433;BME280;46286;48.098;11.590;2022-09-09T13:41:46;95333.50;;;17.37;100.00
60433;BME280;46286;48.098;11.590;2022-09-09T13:44:24;95328.41;;;17.62;100.00
60433;BME280;46286;48.098;11.590;2022-09-09T13:47:02;95332.81;;;17.58;100.00
60433;BME280;46286;48.098;11.590;2022-09-09T13:49:29;95324.84;;;17.58;100.00
60433;BME280;46286;48.098;11.590;2022-09-09T13:52:08;95331.19;;;17.27;100.00
60433;BME280;46286;48.098;11.590;2022-09-09T13:54:34;95315.69;;;17.29;100.00
60433;BME280;46286;48.098;11.590;2022-09-09T13:57:00;95317.00;;;17.05;100.00
60433;BME280;46286;48.098;11.590;2022-09-09T13:59:26;95311.34;;;17.16;100.00
60433;BME280;46286;48.098;11.590;2022-09-09T14:01:52;95314.50;;;17.00;100.00
60433;BME280;46286;48.098;11.590;2022-09-09T14:04:19;95302.63;;;16.89;100.00
60433;BME280;46286;48.098;11.590;2022-09-09T14:06:48;95312.63;;;16.92;100.00
60433;BME280;46286;48.098;11.590;2022-09-09T14:09:16;95307.78;;;16.94;100.00
60433;BME280;46286;48.098;11.590;2022-09-09T14:11:43;95310.44;;;16.94;100.00
60433;BME280;46286;48.098;11.590;2022-09-09T14:14:08;95310.09;;;16.87;100.00
60433;BME280;46286;48.098;11.590;2022-09-09T14:16:34;95314.50;;;17.00;100.00
60433;BME280;46286;48.098;11.590;2022-09-09T14:18:59;95316.66;;;16.98;100.00
60433;BME280;46286;48.098;11.590;2022-09-09T14:21:26;95327.94;;;17.12;100.00
60433;BME280;46286;48.098;11.590;2022-09-09T14:23:52;95310.53;;;17.15;100.00
60433;BME280;46286;48.098;11.590;2022-09-09T14:26:19;95319.72;;;17.35;100.00
60433;BME280;46286;48.098;11.590;2022-09-09T14:28:46;95324.13;;;17.31;100.00
60433;BME280;46286;48.098;11.590;2022-09-09T14:31:12;95321.34;;;17.19;100.00
60433;BME280;46286;48.098;11.590;2022-09-09T14:33:39;95326.38;;;17.11;100.00
60433;BME280;46286;48.098;11.590;2022-09-09T14:36:04;95321.97;;;17.16;100.00
60433;BME280;46286;48.098;11.590;2022-09-09T14:38:31;95318.38;;;17.20;100.00
60433;BME280;46286;48.098;11.590;2022-09-09T14:40:59;95323.22;;;17.27;100.00
60433;BME280;46286;48.098;11.590;2022-09-09T14:43:25;95323.53;;;17.17;100.00
60433;BME280;46286;48.098;11.590;2022-09-09T14:45:52;95335.44;;;17.10;100.00
60433;BME280;46286;48.098;11.590;2022-09-09T14:48:17;95327.91;;;17.04;100.00
60433;BME280;46286;48.098;11.590;2022-09-09T14:50:43;95333.69;;;17.14;100.00
60433;BME280;46286;48.098;11.590;2022-09-09T14:53:09;95327.59;;;17.23;100.00
60433;BME280;46286;48.098;11.590;2022-09-09T14:55:36;95335.44;;;17.10;100.00
60433;BME280;46286;48.098;11.590;2022-09-09T14:58:02;95333.41;;;17.07;100.00